Time;durP1;ratioP1;P1;durP2;ratioP2;P2;SDS_P1;SDS_P2;PMS_P1;PMS_P2;Temp;Humidity;BMP_temperature;BMP_pressure;BME280_temperature;BME280_humidity;BME280_pressure;Samples;Min_cycle;Max_cycle;Signal;HPM_P1;HPM_P2
2024/03/15 00:02:21;;;;;;;10.00;5.40;;;7.20;99.90;;;;;;5046158;28;20186;-61
2024/03/15 00:04:47;;;;;;;9.53;5.67;;;7.10;99.90;;;;;;5042750;28;20225;-61
2024/03/15 00:07:13;;;;;;;10.43;6.17;;;7.10;99.90;;;;;;5043860;28;20198;-61
2024/03/15 00:09:39;;;;;;;10.47;7.53;;;7.10;99.90;;;;;;5046121;28;20210;-60
2024/03/15 00:12:05;;;;;;;15.37;8.30;;;7.10;99.90;;;;;;5043742;28;20426;-61
2024/03/15 00:14:30;;;;;;;16.33;7.60;;;7.10;99.90;;;;;;5046405;28;20760;-61
2024/03/15 00:16:56;;;;;;;12.90;7.43;;;7.10;99.90;;;;;;5044757;28;20199;-61
2024/03/15 00:19:22;;;;;;;21.53;8.13;;;7.00;99.90;;;;;;5045751;28;20177;-61
2024/03/15 00:21:48;;;;;;;31.90;8.77;;;7.10;99.90;;;;;;5043934;28;20171;-61
2024/03/15 00:24:15;;;;;;;19.23;8.00;;;7.00;99.90;;;;;;5046014;28;20491;-61
2024/03/15 00:26:42;;;;;;;22.27;9.03;;;7.00;99.90;;;;;;5044438;28;20455;-60
2024/03/15 00:29:09;;;;;;;19.03;9.13;;;7.00;99.90;;;;;;5045188;28;20457;-60
2024/03/15 00:31:35;;;;;;;22.37;8.23;;;7.00;99.90;;;;;;5044356;28;20788;-61
2024/03/15 00:34:03;;;;;;;14.73;7.93;;;7.00;99.90;;;;;;5044272;28;20429;-60
2024/03/15 00:36:31;;;;;;;25.80;8.70;;;7.00;99.90;;;;;;5043761;28;20425;-60
2024/03/15 00:38:57;;;;;;;48.80;10.00;;;7.00;99.90;;;;;;5046273;28;20418;-60
2024/03/15 00:41:23;;;;;;;35.50;10.00;;;7.00;99.90;;;;;;5020384;28;20487;-61
2024/03/15 00:43:48;;;;;;;25.03;7.57;;;7.00;99.90;;;;;;5042159;28;20172;-60
2024/03/15 00:46:15;;;;;;;29.93;8.37;;;7.00;99.90;;;;;;5048643;28;20417;-60
2024/03/15 00:48:41;;;;;;;29.20;9.43;;;7.00;99.90;;;;;;5046056;28;20242;-61
2024/03/15 00:51:10;;;;;;;21.17;8.00;;;7.00;99.90;;;;;;5046188;28;20453;-60
2024/03/15 00:53:36;;;;;;;41.13;7.70;;;6.90;99.90;;;;;;5044446;28;20526;-61
2024/03/15 00:56:04;;;;;;;15.43;7.00;;;6.90;99.90;;;;;;5047884;28;20408;-61
2024/03/15 00:58:30;;;;;;;14.40;7.20;;;6.90;99.90;;;;;;5045608;28;20457;-61
2024/03/15 01:00:56;;;;;;;13.73;6.87;;;6.90;99.90;;;;;;5049132;28;20417;-61
2024/03/15 01:03:23;;;;;;;17.30;8.83;;;6.90;99.90;;;;;;5025095;28;20186;-61
2024/03/15 01:05:50;;;;;;;23.23;7.77;;;6.90;99.90;;;;;;5047138;28;20904;-61
2024/03/15 01:08:15;;;;;;;11.87;6.83;;;6.90;99.90;;;;;;5046631;28;20476;-60
2024/03/15 01:10:41;;;;;;;10.93;6.43;;;6.90;99.90;;;;;;5048195;28;20422;-61
2024/03/15 01:13:07;;;;;;;13.53;6.87;;;6.90;99.90;;;;;;5047795;28;20183;-61
2024/03/15 01:15:32;;;;;;;16.90;6.63;;;6.90;99.90;;;;;;5046172;28;20189;-61
2024/03/15 01:17:58;;;;;;;22.30;7.77;;;6.90;99.90;;;;;;5047099;28;20191;-61
2024/03/15 01:20:24;;;;;;;24.33;8.20;;;6.90;99.90;;;;;;5030328;28;20179;-61
2024/03/15 01:22:49;;;;;;;31.93;8.30;;;6.90;99.90;;;;;;5046341;28;20175;-61
2024/03/15 01:25:15;;;;;;;18.40;7.20;;;6.80;99.90;;;;;;5044937;28;20677;-61
2024/03/15 01:27:41;;;;;;;14.03;7.17;;;6.80;99.90;;;;;;5026975;28;259914;-61
2024/03/15 01:30:10;;;;;;;18.70;7.67;;;6.80;99.90;;;;;;5043976;28;20175;-61
2024/03/15 01:32:36;;;;;;;32.53;8.23;;;6.80;99.90;;;;;;5046311;28;20270;-61
2024/03/15 01:35:05;;;;;;;19.80;7.70;;;6.80;99.90;;;;;;5048818;28;20505;-61
2024/03/15 01:37:31;;;;;;;18.13;8.07;;;6.80;99.90;;;;;;5046205;28;20456;-60
2024/03/15 01:39:58;;;;;;;24.47;10.20;;;6.70;99.90;;;;;;5031034;28;20504;-61
2024/03/15 01:42:23;;;;;;;29.77;9.23;;;6.70;99.90;;;;;;5048086;28;20191;-60
2024/03/15 01:44:56;;;;;;;26.73;9.30;;;6.70;99.90;;;;;;5026855;28;20452;-61
2024/03/15 01:47:27;;;;;;;58.43;10.80;;;6.70;99.90;;;;;;5043075;28;20203;-60
2024/03/15 01:49:57;;;;;;;19.87;7.80;;;6.70;99.90;;;;;;5045714;28;21091;-60
2024/03/15 01:52:28;;;;;;;38.83;8.43;;;6.60;99.90;;;;;;5046907;28;20441;-60
2024/03/15 01:54:54;;;;;;;28.20;7.77;;;6.60;99.90;;;;;;5038868;28;20417;-60
2024/03/15 01:57:20;;;;;;;30.17;7.93;;;6.50;99.90;;;;;;5044945;28;20788;-62
2024/03/15 01:59:46;;;;;;;21.70;6.53;;;6.50;99.90;;;;;;5046707;28;20257;-61
2024/03/15 02:02:13;;;;;;;15.37;6.60;;;6.50;99.90;;;;;;5049008;28;20413;-61
2024/03/15 02:04:40;;;;;;;28.70;7.27;;;6.40;99.90;;;;;;5047513;28;20453;-61
2024/03/15 02:07:06;;;;;;;15.63;7.57;;;6.40;99.90;;;;;;5044602;28;20461;-60
2024/03/15 02:09:32;;;;;;;19.27;6.47;;;6.30;99.90;;;;;;5046397;28;20465;-60
2024/03/15 02:11:58;;;;;;;24.90;7.23;;;6.30;99.90;;;;;;5047140;28;20435;-60
2024/03/15 02:14:24;;;;;;;26.87;7.10;;;6.30;99.90;;;;;;5046247;28;20634;-61
2024/03/15 02:16:50;;;;;;;22.33;7.13;;;6.30;99.90;;;;;;5044372;28;20456;-59
2024/03/15 02:19:16;;;;;;;22.40;7.30;;;6.30;99.90;;;;;;5046142;28;20987;-60
2024/03/15 02:21:43;;;;;;;15.53;6.80;;;6.30;99.90;;;;;;5045889;28;20434;-61
2024/03/15 02:24:10;;;;;;;12.67;7.30;;;6.20;99.90;;;;;;5045848;28;20183;-60
2024/03/15 02:26:36;;;;;;;16.70;7.77;;;6.20;99.90;;;;;;5046350;28;20916;-60
2024/03/15 02:29:02;;;;;;;40.23;8.93;;;6.20;99.90;;;;;;5046758;28;20461;-61
2024/03/15 02:31:28;;;;;;;28.80;7.50;;;6.20;99.90;;;;;;5047186;28;20437;-61
2024/03/15 02:33:57;;;;;;;26.23;8.27;;;6.30;99.90;;;;;;5046309;28;20171;-61
2024/03/15 02:36:23;;;;;;;38.93;8.60;;;6.30;99.90;;;;;;5045901;28;20944;-61
2024/03/15 02:38:48;;;;;;;71.07;10.07;;;6.30;99.90;;;;;;5046483;28;20429;-60
2024/03/15 02:41:15;;;;;;;72.07;8.53;;;6.30;99.90;;;;;;5046901;28;20774;-61
2024/03/15 02:43:41;;;;;;;134.27;9.27;;;6.30;99.90;;;;;;5041642;28;20667;-61
2024/03/15 02:46:07;;;;;;;94.73;9.73;;;6.30;99.90;;;;;;5045157;28;20417;-62
2024/03/15 02:48:32;;;;;;;115.37;10.30;;;6.20;99.90;;;;;;5042543;28;20544;-61
2024/03/15 02:51:01;;;;;;;91.70;9.80;;;6.20;99.90;;;;;;5047403;28;20183;-61
2024/03/15 02:53:27;;;;;;;151.47;11.70;;;6.20;99.90;;;;;;5044170;28;20578;-61
2024/03/15 02:55:53;;;;;;;100.10;9.87;;;6.10;99.90;;;;;;5039510;28;20429;-61
2024/03/15 02:58:20;;;;;;;109.93;10.73;;;6.10;99.90;;;;;;5045732;28;20708;-62
2024/03/15 03:00:48;;;;;;;52.20;8.17;;;6.00;99.90;;;;;;5046169;28;20190;-60
2024/03/15 03:03:14;;;;;;;77.77;7.93;;;6.00;99.90;;;;;;5046715;28;20451;-61
2024/03/15 03:05:40;;;;;;;90.07;8.20;;;6.00;99.90;;;;;;5044507;28;20418;-61
2024/03/15 03:08:05;;;;;;;75.13;8.40;;;6.00;99.90;;;;;;5045445;28;20211;-63
2024/03/15 03:10:31;;;;;;;38.67;6.90;;;6.00;99.90;;;;;;5028016;28;20168;-61
2024/03/15 03:12:57;;;;;;;47.77;7.20;;;5.90;99.90;;;;;;5043168;28;20300;-61
2024/03/15 03:15:23;;;;;;;23.17;6.50;;;5.90;99.90;;;;;;5038047;28;20646;-61
2024/03/15 03:17:48;;;;;;;29.00;5.90;;;5.90;99.90;;;;;;5042610;28;20209;-61
2024/03/15 03:20:20;;;;;;;10.50;5.07;;;5.90;99.90;;;;;;5047288;28;20500;-60
2024/03/15 03:22:48;;;;;;;15.87;5.10;;;5.90;99.90;;;;;;5042576;28;20924;-60
2024/03/15 03:25:15;;;;;;;23.00;5.70;;;5.90;99.90;;;;;;5043598;28;20432;-60
2024/03/15 03:27:41;;;;;;;18.97;6.93;;;5.90;99.90;;;;;;5038710;28;20513;-60
2024/03/15 03:30:07;;;;;;;35.53;7.60;;;5.90;99.90;;;;;;5041634;28;20478;-61
2024/03/15 03:32:35;;;;;;;30.90;6.17;;;5.90;99.90;;;;;;5019754;28;20461;-60
2024/03/15 03:35:03;;;;;;;21.77;7.93;;;6.00;99.90;;;;;;5043343;28;20421;-60
2024/03/15 03:37:28;;;;;;;23.23;6.53;;;6.00;99.90;;;;;;5038906;28;20433;-60
2024/03/15 03:39:54;;;;;;;25.50;8.20;;;6.00;99.90;;;;;;5038622;28;20780;-61
2024/03/15 03:42:20;;;;;;;19.80;6.43;;;5.90;99.90;;;;;;5046313;28;20195;-61
2024/03/15 03:44:45;;;;;;;33.17;6.10;;;5.90;99.90;;;;;;5027823;28;20194;-61
2024/03/15 03:47:11;;;;;;;24.10;6.80;;;5.90;99.90;;;;;;5046220;28;20187;-61
2024/03/15 03:49:38;;;;;;;16.80;7.33;;;5.90;99.90;;;;;;5045577;28;20286;-61
2024/03/15 03:52:03;;;;;;;19.97;7.63;;;5.90;99.90;;;;;;5046971;28;20417;-62
2024/03/15 03:54:30;;;;;;;25.90;7.60;;;5.90;99.90;;;;;;5045279;28;20960;-60
2024/03/15 03:56:57;;;;;;;29.40;7.83;;;5.90;99.90;;;;;;5045238;28;20191;-61
2024/03/15 03:59:22;;;;;;;28.73;7.83;;;5.90;99.90;;;;;;5045683;28;20794;-62
2024/03/15 04:01:48;;;;;;;40.87;9.10;;;5.90;99.90;;;;;;5043607;28;20449;-61
2024/03/15 04:04:14;;;;;;;51.87;9.73;;;5.80;99.90;;;;;;5046695;28;20183;-60
2024/03/15 04:06:46;;;;;;;70.87;10.00;;;5.80;99.90;;;;;;5044064;28;20270;-61
2024/03/15 04:09:12;;;;;;;37.57;8.30;;;5.80;99.90;;;;;;5045773;28;20468;-61
2024/03/15 04:11:38;;;;;;;54.87;9.30;;;5.80;99.90;;;;;;5048229;28;20417;-61
2024/03/15 04:14:04;;;;;;;46.30;8.80;;;5.70;99.90;;;;;;5049737;28;20238;-62
2024/03/15 04:16:30;;;;;;;60.13;10.27;;;5.70;99.90;;;;;;5044531;28;20426;-60
2024/03/15 04:18:57;;;;;;;69.00;10.87;;;5.70;99.90;;;;;;5022780;28;20237;-63
2024/03/15 04:21:23;;;;;;;37.17;10.90;;;5.60;99.90;;;;;;5047747;28;20434;-60
2024/03/15 04:23:49;;;;;;;49.67;8.50;;;5.60;99.90;;;;;;5049981;28;20487;-61
2024/03/15 04:26:15;;;;;;;36.37;7.90;;;5.60;99.90;;;;;;5048216;28;20270;-61
2024/03/15 04:28:41;;;;;;;35.47;8.43;;;5.50;99.90;;;;;;5048158;28;20750;-61
2024/03/15 04:31:07;;;;;;;33.30;8.00;;;5.60;99.90;;;;;;5047550;28;20476;-61
2024/03/15 04:33:35;;;;;;;27.60;8.10;;;5.50;99.90;;;;;;5045188;28;20982;-61
2024/03/15 04:36:04;;;;;;;41.67;8.30;;;5.50;99.90;;;;;;5044558;28;20605;-61
2024/03/15 04:38:30;;;;;;;20.63;6.43;;;5.50;99.90;;;;;;5049538;28;20425;-61
2024/03/15 04:40:55;;;;;;;49.23;8.03;;;5.50;99.90;;;;;;5049409;28;20428;-61
2024/03/15 04:43:21;;;;;;;30.13;8.10;;;5.50;99.90;;;;;;5048880;28;20171;-61
2024/03/15 04:45:48;;;;;;;23.07;6.97;;;5.40;99.90;;;;;;5046944;28;21931;-61
2024/03/15 04:48:14;;;;;;;25.73;7.53;;;5.40;99.90;;;;;;5045243;28;20202;-61
2024/03/15 04:50:40;;;;;;;59.03;8.60;;;5.50;99.90;;;;;;5046148;28;20426;-61
2024/03/15 04:53:05;;;;;;;52.47;8.80;;;5.40;99.90;;;;;;5045334;28;20175;-61
2024/03/15 04:55:31;;;;;;;36.77;8.30;;;5.40;99.90;;;;;;5040169;28;20411;-62
2024/03/15 04:57:57;;;;;;;48.33;8.43;;;5.40;99.90;;;;;;5046819;28;20202;-59
2024/03/15 05:00:22;;;;;;;83.63;10.13;;;5.40;99.90;;;;;;5048388;28;20168;-63
2024/03/15 05:02:48;;;;;;;51.97;8.70;;;5.40;99.90;;;;;;5035417;28;20175;-66
2024/03/15 05:05:15;;;;;;;39.03;8.70;;;5.40;99.90;;;;;;5047922;28;20706;-63
2024/03/15 05:07:41;;;;;;;43.67;8.07;;;5.30;99.90;;;;;;5044718;28;20202;-62
2024/03/15 05:10:07;;;;;;;34.47;7.87;;;5.30;99.90;;;;;;5043937;28;20410;-63
2024/03/15 05:12:33;;;;;;;40.20;8.47;;;5.30;99.90;;;;;;5044364;28;20417;-62
2024/03/15 05:14:59;;;;;;;30.70;8.70;;;5.30;99.90;;;;;;5048432;28;20441;-63
2024/03/15 05:17:25;;;;;;;33.17;8.27;;;5.30;99.90;;;;;;5027590;28;20836;-63
2024/03/15 05:19:51;;;;;;;26.73;9.10;;;5.30;99.90;;;;;;5045798;28;20178;-62
2024/03/15 05:22:18;;;;;;;24.17;8.17;;;5.40;99.90;;;;;;5046764;28;20503;-61
2024/03/15 05:24:43;;;;;;;27.50;9.10;;;5.40;99.90;;;;;;5043001;28;20989;-63
2024/03/15 05:27:09;;;;;;;26.97;8.20;;;5.40;99.90;;;;;;5041970;28;20492;-62
2024/03/15 05:29:38;;;;;;;20.07;7.00;;;5.40;99.90;;;;;;5038494;28;20211;-62
2024/03/15 05:32:04;;;;;;;16.73;7.30;;;5.40;99.90;;;;;;5035130;28;20187;-63
2024/03/15 05:34:31;;;;;;;15.20;6.70;;;5.40;99.90;;;;;;5031343;28;20522;-62
2024/03/15 05:36:58;;;;;;;11.70;6.30;;;5.40;99.90;;;;;;5044397;28;20438;-62
2024/03/15 05:39:23;;;;;;;9.50;6.20;;;5.50;99.90;;;;;;5040045;28;20453;-62
2024/03/15 05:41:49;;;;;;;16.70;5.93;;;5.40;99.90;;;;;;5043607;28;21402;-62
2024/03/15 05:44:15;;;;;;;10.70;5.80;;;5.50;99.90;;;;;;5041774;28;20175;-62
2024/03/15 05:46:42;;;;;;;14.57;6.70;;;5.50;99.90;;;;;;5042803;28;20258;-64
2024/03/15 05:49:08;;;;;;;11.87;5.47;;;5.50;99.90;;;;;;5046235;28;20203;-63
2024/03/15 05:51:33;;;;;;;10.80;6.90;;;5.50;99.90;;;;;;5044166;28;20441;-63
2024/03/15 05:53:59;;;;;;;7.70;5.17;;;5.50;99.90;;;;;;5041222;28;20427;-62
2024/03/15 05:56:25;;;;;;;5.87;5.07;;;5.50;99.90;;;;;;5044607;28;20190;-61
2024/03/15 05:58:53;;;;;;;6.53;4.90;;;5.50;99.90;;;;;;5043066;28;20808;-62
2024/03/15 06:01:19;;;;;;;6.00;4.80;;;5.50;99.90;;;;;;5044702;28;20167;-63
2024/03/15 06:03:44;;;;;;;9.83;6.13;;;5.50;99.90;;;;;;5045190;28;20970;-62
2024/03/15 06:06:10;;;;;;;9.53;6.90;;;5.50;99.90;;;;;;5044577;28;20524;-62
2024/03/15 06:08:35;;;;;;;8.90;6.60;;;5.50;99.90;;;;;;5042309;28;20222;-59
2024/03/15 06:11:01;;;;;;;8.20;5.47;;;5.50;99.90;;;;;;5046183;28;20897;-63
2024/03/15 06:13:27;;;;;;;6.90;4.73;;;5.40;99.90;;;;;;5043893;28;20195;-63
2024/03/15 06:15:53;;;;;;;6.03;4.83;;;5.40;99.90;;;;;;5041922;28;20179;-62
2024/03/15 06:18:18;;;;;;;7.77;5.10;;;5.40;99.90;;;;;;5041565;28;20463;-62
2024/03/15 06:20:44;;;;;;;9.23;5.63;;;5.40;99.90;;;;;;5047446;28;20179;-62
2024/03/15 06:23:10;;;;;;;9.07;5.60;;;5.40;99.90;;;;;;5047517;28;20209;-62
2024/03/15 06:25:36;;;;;;;9.17;5.50;;;5.30;99.90;;;;;;5045657;28;20187;-64
2024/03/15 06:28:06;;;;;;;9.93;5.40;;;5.40;99.90;;;;;;5041648;28;20798;-63
2024/03/15 06:30:43;;;;;;;10.13;6.90;;;5.40;99.90;;;;;;5043359;28;20540;-62
2024/03/15 06:33:10;;;;;;;12.13;6.33;;;5.40;99.90;;;;;;5044215;28;20464;-62
2024/03/15 06:35:36;;;;;;;7.93;6.20;;;5.40;99.90;;;;;;5046887;28;20512;-63
2024/03/15 06:38:09;;;;;;;10.77;7.53;;;5.40;99.90;;;;;;5046422;28;20532;-63
2024/03/15 06:41:07;;;;;;;10.00;7.10;;;5.40;99.90;;;;;;5044420;28;20214;-62
2024/03/15 06:43:39;;;;;;;12.10;6.17;;;5.40;99.90;;;;;;5036036;28;20864;-62
2024/03/15 06:46:09;;;;;;;9.70;5.83;;;5.50;99.90;;;;;;5046047;28;20855;-55
2024/03/15 06:48:47;;;;;;;7.00;5.23;;;5.50;99.90;;;;;;5044464;28;21169;-61
2024/03/15 06:53:56;;;;;;;10.90;6.47;;;5.60;99.90;;;;;;5045030;28;20528;-61
2024/03/15 06:56:22;;;;;;;11.67;6.13;;;5.60;99.90;;;;;;5043107;28;20517;-61
2024/03/15 06:58:48;;;;;;;9.87;5.13;;;5.60;99.90;;;;;;5036927;28;20199;-61
2024/03/15 07:01:14;;;;;;;8.10;6.00;;;5.60;99.90;;;;;;5046896;28;20990;-59
2024/03/15 07:03:39;;;;;;;10.30;5.60;;;5.70;99.90;;;;;;5042179;28;20177;-59
2024/03/15 07:06:05;;;;;;;11.93;5.73;;;5.70;99.90;;;;;;5046642;28;20179;-62
2024/03/15 07:08:32;;;;;;;8.63;6.00;;;5.80;99.90;;;;;;5045659;28;20203;-61
2024/03/15 07:10:57;;;;;;;6.97;5.60;;;5.80;99.90;;;;;;5047202;28;20224;-59
2024/03/15 07:13:23;;;;;;;10.00;7.20;;;5.90;99.90;;;;;;5046216;28;20904;-61
2024/03/15 07:15:49;;;;;;;10.60;7.53;;;6.00;99.90;;;;;;5044475;28;20345;-59
2024/03/15 07:18:15;;;;;;;10.83;7.70;;;6.10;99.90;;;;;;5045910;28;20511;-58
2024/03/15 07:20:41;;;;;;;14.00;8.47;;;6.10;99.90;;;;;;5044952;28;21066;-59
2024/03/15 07:23:07;;;;;;;10.80;8.17;;;6.20;99.90;;;;;;5047054;28;20206;-59
2024/03/15 07:25:35;;;;;;;12.70;9.07;;;6.30;99.90;;;;;;5042866;28;20854;-60
2024/03/15 07:28:01;;;;;;;16.17;10.07;;;6.40;99.90;;;;;;5042344;28;20221;-59
2024/03/15 07:30:28;;;;;;;19.70;9.90;;;6.50;99.90;;;;;;5045687;28;20483;-60
2024/03/15 07:32:54;;;;;;;17.17;10.63;;;6.60;99.90;;;;;;5040963;28;20453;-60
2024/03/15 07:35:20;;;;;;;22.50;10.63;;;6.60;99.90;;;;;;5038921;28;20461;-60
2024/03/15 07:37:47;;;;;;;18.37;9.47;;;6.70;99.90;;;;;;5039308;28;20446;-59
2024/03/15 07:40:13;;;;;;;15.03;9.37;;;6.80;99.90;;;;;;5045068;28;20445;-59
2024/03/15 07:42:39;;;;;;;25.23;11.63;;;6.80;99.90;;;;;;5046266;28;20495;-62
2024/03/15 07:45:06;;;;;;;28.60;13.23;;;7.00;99.90;;;;;;5046068;28;20406;-60
2024/03/15 07:47:33;;;;;;;24.80;12.77;;;7.10;99.90;;;;;;5046947;28;20818;-60
2024/03/15 07:50:00;;;;;;;24.00;12.53;;;7.20;99.90;;;;;;5050742;28;20199;-59
2024/03/15 07:52:26;;;;;;;35.00;14.43;;;7.30;99.90;;;;;;5051255;28;20791;-59
2024/03/15 07:54:51;;;;;;;25.47;14.53;;;7.40;99.90;;;;;;5048651;28;20425;-58
2024/03/15 07:57:17;;;;;;;29.30;14.23;;;7.50;99.90;;;;;;5049731;28;20203;-58
2024/03/15 07:59:43;;;;;;;25.90;14.10;;;7.60;99.90;;;;;;5049934;28;20171;-59
2024/03/15 08:02:09;;;;;;;32.40;13.00;;;7.70;99.90;;;;;;5051477;28;20172;-61
2024/03/15 08:04:34;;;;;;;23.80;13.53;;;7.80;99.90;;;;;;5048325;28;20520;-60
2024/03/15 08:07:00;;;;;;;28.03;13.87;;;7.90;99.90;;;;;;5048027;28;20549;-60
2024/03/15 08:09:26;;;;;;;26.60;13.20;;;8.00;99.90;;;;;;5049546;28;20238;-60
2024/03/15 08:11:52;;;;;;;25.13;11.37;;;8.20;99.90;;;;;;5044725;28;20665;-59
2024/03/15 08:14:18;;;;;;;28.40;12.83;;;8.30;99.90;;;;;;5050333;28;20617;-61
2024/03/15 08:16:45;;;;;;;34.07;12.23;;;8.40;99.90;;;;;;5049972;28;20468;-61
2024/03/15 08:19:11;;;;;;;31.43;11.20;;;8.60;99.90;;;;;;5044457;28;20829;-61
2024/03/15 08:21:37;;;;;;;23.33;10.90;;;8.70;99.90;;;;;;5047467;28;20429;-60
2024/03/15 08:24:04;;;;;;;18.00;10.80;;;8.80;99.90;;;;;;5051279;28;20175;-62
2024/03/15 08:26:31;;;;;;;15.67;9.13;;;9.00;99.90;;;;;;5046272;28;20521;-59
2024/03/15 08:28:57;;;;;;;16.60;9.77;;;9.20;99.90;;;;;;5047642;28;20453;-61
2024/03/15 08:31:23;;;;;;;18.10;10.00;;;9.40;99.90;;;;;;5048728;28;20409;-61
2024/03/15 08:33:48;;;;;;;16.87;9.70;;;9.50;99.90;;;;;;5048310;28;20220;-63
2024/03/15 08:36:14;;;;;;;10.57;5.30;;;9.70;99.90;;;;;;5048808;28;20284;-61
2024/03/15 08:38:40;;;;;;;10.13;4.57;;;9.90;99.90;;;;;;5044821;28;20207;-60
2024/03/15 08:41:06;;;;;;;7.93;4.20;;;10.10;99.90;;;;;;5042035;28;20179;-66
2024/03/15 08:43:32;;;;;;;9.70;3.80;;;10.20;99.90;;;;;;5044928;28;20185;-61
2024/03/15 08:45:58;;;;;;;5.43;3.70;;;10.40;99.90;;;;;;5044028;28;20468;-61
2024/03/15 08:48:26;;;;;;;7.93;3.40;;;10.60;99.90;;;;;;5040624;28;20607;-60
2024/03/15 08:50:52;;;;;;;4.70;3.30;;;10.80;99.90;;;;;;5041938;28;20438;-61
2024/03/15 08:53:17;;;;;;;6.47;3.27;;;11.00;99.90;;;;;;5038165;28;20991;-61
2024/03/15 08:55:43;;;;;;;10.10;3.57;;;11.20;99.90;;;;;;5038903;28;20179;-63
2024/03/15 08:58:10;;;;;;;3.77;3.00;;;11.30;99.90;;;;;;5042562;28;20202;-61
2024/03/15 09:00:38;;;;;;;5.27;3.23;;;11.50;99.90;;;;;;5043257;28;20438;-60
2024/03/15 09:03:05;;;;;;;5.67;3.43;;;11.70;99.90;;;;;;5041376;28;20535;-60
2024/03/15 09:05:31;;;;;;;7.20;2.87;;;11.90;99.90;;;;;;5042113;28;20452;-62
2024/03/15 09:07:58;;;;;;;3.97;3.03;;;12.00;99.90;;;;;;5023131;28;21978;-60
2024/03/15 09:10:23;;;;;;;5.50;3.00;;;12.20;99.90;;;;;;5042213;28;20411;-60
2024/03/15 09:12:49;;;;;;;3.30;2.63;;;12.40;99.90;;;;;;5041880;28;20421;-60
2024/03/15 09:15:16;;;;;;;3.73;2.53;;;12.60;99.90;;;;;;5046938;28;20175;-60
2024/03/15 09:17:42;;;;;;;6.07;2.90;;;12.60;99.90;;;;;;5045710;28;20195;-60
2024/03/15 09:20:27;;;;;;;5.63;2.67;;;12.60;99.90;;;;;;5048125;28;20406;-62
2024/03/15 09:22:53;;;;;;;3.43;2.87;;;12.60;99.90;;;;;;5046511;28;20445;-61
2024/03/15 09:25:20;;;;;;;5.33;3.10;;;12.50;99.90;;;;;;5042211;28;20453;-61
2024/03/15 09:27:48;;;;;;;3.37;3.07;;;12.50;99.90;;;;;;5043515;28;20496;-61
2024/03/15 09:30:18;;;;;;;5.27;2.93;;;12.50;99.90;;;;;;5043489;28;20505;-61
2024/03/15 09:32:44;;;;;;;6.73;2.90;;;12.50;99.90;;;;;;5043962;28;21136;-61
2024/03/15 09:35:13;;;;;;;2.40;2.20;;;12.50;99.90;;;;;;5045837;28;20430;-60
2024/03/15 09:37:46;;;;;;;3.53;2.63;;;12.50;99.90;;;;;;5040648;28;20253;-60
2024/03/15 09:40:15;;;;;;;3.80;2.60;;;12.50;99.90;;;;;;5045056;28;20422;-60
2024/03/15 09:42:43;;;;;;;3.00;2.50;;;12.60;99.90;;;;;;5041040;28;20544;-60
2024/03/15 09:45:12;;;;;;;4.13;2.60;;;12.60;99.90;;;;;;5042521;28;20415;-60
2024/03/15 09:47:40;;;;;;;3.80;2.43;;;12.70;99.90;;;;;;5045184;28;20449;-60
2024/03/15 09:50:12;;;;;;;5.50;2.70;;;12.80;99.90;;;;;;5045637;28;20596;-61
2024/03/15 09:52:38;;;;;;;3.93;2.30;;;12.90;99.90;;;;;;5045125;28;21917;-56
2024/03/15 09:55:13;;;;;;;4.37;2.50;;;13.00;99.90;;;;;;5024458;28;20968;-58
2024/03/15 09:57:40;;;;;;;3.70;2.00;;;13.10;99.90;;;;;;5039335;28;20460;-56
2024/03/15 10:00:14;;;;;;;2.30;2.10;;;13.30;99.90;;;;;;5044022;28;21315;-58
2024/03/15 10:02:44;;;;;;;3.90;2.30;;;13.40;99.90;;;;;;5044151;28;20421;-58
2024/03/15 10:05:10;;;;;;;8.80;2.33;;;13.60;96.90;;;;;;5042980;28;20430;-59
2024/03/15 10:07:37;;;;;;;2.30;2.10;;;13.70;96.60;;;;;;5042943;28;20659;-59
2024/03/15 10:10:11;;;;;;;2.60;2.30;;;13.70;96.70;;;;;;5043375;28;20461;-57
2024/03/15 10:12:40;;;;;;;12.93;2.70;;;13.70;84.60;;;;;;5044020;28;20455;-56
2024/03/15 10:15:10;;;;;;;4.70;2.33;;;13.70;84.40;;;;;;5044065;28;20413;-57
2024/03/15 10:17:40;;;;;;;2.83;2.30;;;13.90;83.50;;;;;;5043827;28;20445;-56
2024/03/15 10:20:14;;;;;;;3.67;2.00;;;14.00;81.80;;;;;;5045596;28;20508;-57
2024/03/15 10:22:40;;;;;;;5.47;2.43;;;14.20;79.70;;;;;;5041115;28;20467;-55
2024/03/15 10:25:15;;;;;;;3.70;1.90;;;14.40;78.50;;;;;;5041184;28;20788;-56
2024/03/15 10:27:44;;;;;;;4.20;2.30;;;14.60;77.00;;;;;;5041164;28;20471;-56
2024/03/15 10:30:22;;;;;;;3.10;2.50;;;14.80;75.60;;;;;;5044978;28;20422;-58
2024/03/15 10:32:49;;;;;;;5.30;2.40;;;15.00;69.10;;;;;;5043019;28;20410;-57
2024/03/15 10:35:15;;;;;;;10.90;2.50;;;15.00;68.10;;;;;;5043638;28;20868;-56
2024/03/15 10:37:43;;;;;;;3.43;2.10;;;14.90;63.00;;;;;;5044785;28;20445;-57
2024/03/15 10:40:23;;;;;;;2.97;2.10;;;14.80;61.50;;;;;;5042737;28;20422;-57
2024/03/15 10:42:50;;;;;;;2.20;2.00;;;14.80;63.50;;;;;;5045548;28;20445;-59
2024/03/15 10:45:19;;;;;;;6.20;2.30;;;14.80;62.80;;;;;;5042434;28;20429;-56
2024/03/15 10:47:45;;;;;;;8.90;2.47;;;14.70;63.30;;;;;;5041045;28;20444;-56
2024/03/15 10:50:12;;;;;;;3.73;1.80;;;14.60;65.50;;;;;;5043580;28;20802;-56
2024/03/15 10:52:42;;;;;;;4.30;1.90;;;14.60;66.80;;;;;;5045807;28;20808;-58
2024/03/15 10:55:28;;;;;;;2.80;2.20;;;14.50;66.40;;;;;;5044387;28;20794;-58
2024/03/15 10:57:59;;;;;;;3.50;2.00;;;14.40;66.70;;;;;;5040620;28;20462;-57
2024/03/15 11:00:28;;;;;;;2.60;2.27;;;14.30;68.80;;;;;;5041268;28;20421;-57
2024/03/15 11:03:12;;;;;;;7.10;1.93;;;14.20;69.30;;;;;;5042836;28;20438;-59
2024/03/15 11:05:38;;;;;;;5.37;2.03;;;14.10;70.70;;;;;;5041159;28;20421;-60
2024/03/15 11:08:13;;;;;;;3.47;2.07;;;14.00;72.30;;;;;;5039777;28;21158;-57
2024/03/15 11:10:39;;;;;;;4.60;2.33;;;13.90;73.60;;;;;;5039939;28;20536;-56
2024/03/15 11:13:09;;;;;;;3.30;2.50;;;13.90;75.30;;;;;;5043178;28;20405;-56
2024/03/15 11:15:37;;;;;;;4.70;1.93;;;14.00;75.50;;;;;;5041722;28;20430;-57
2024/03/15 11:18:10;;;;;;;5.57;2.10;;;14.00;73.10;;;;;;5038226;28;20500;-57
2024/03/15 11:20:53;;;;;;;3.80;2.20;;;14.00;69.40;;;;;;5040121;28;20438;-57
2024/03/15 11:23:21;;;;;;;2.73;2.20;;;14.00;68.80;;;;;;5040588;28;20449;-56
2024/03/15 11:25:56;;;;;;;2.10;1.90;;;14.00;70.50;;;;;;5043871;28;20413;-57
2024/03/15 11:28:29;;;;;;;2.50;2.30;;;14.00;70.80;;;;;;5042133;28;20559;-58
2024/03/15 11:30:55;;;;;;;2.27;2.10;;;14.10;72.20;;;;;;5044334;28;20417;-55
2024/03/15 11:33:21;;;;;;;2.63;2.40;;;14.00;73.20;;;;;;5043245;28;21041;-56
2024/03/15 11:35:48;;;;;;;2.60;2.20;;;14.00;73.00;;;;;;5041718;28;20263;-59
2024/03/15 11:38:19;;;;;;;2.17;1.90;;;13.90;75.50;;;;;;5046506;28;20958;-56
2024/03/15 11:40:46;;;;;;;4.90;2.67;;;13.90;75.60;;;;;;5045345;28;20427;-56
2024/03/15 11:43:13;;;;;;;5.90;2.80;;;13.90;77.10;;;;;;5045362;28;20639;-58
2024/03/15 11:45:41;;;;;;;6.30;2.50;;;13.90;78.80;;;;;;5042945;28;21053;-57
2024/03/15 11:48:19;;;;;;;4.63;2.50;;;13.80;78.50;;;;;;5044378;28;20465;-59
2024/03/15 11:50:46;;;;;;;6.10;2.40;;;13.80;80.10;;;;;;5043131;28;20421;-57
2024/03/15 11:53:12;;;;;;;2.40;2.17;;;13.80;83.30;;;;;;5044939;28;20430;-56
2024/03/15 11:55:39;;;;;;;8.47;2.90;;;13.80;85.00;;;;;;5045904;28;20956;-57
2024/03/15 11:58:04;;;;;;;4.17;2.47;;;14.00;85.60;;;;;;5044414;28;20433;-58
2024/03/15 12:00:36;;;;;;;4.90;2.50;;;14.20;84.60;;;;;;5046783;28;20418;-57
2024/03/15 12:03:04;;;;;;;3.30;2.40;;;14.30;79.30;;;;;;5044962;28;20669;-59
2024/03/15 12:05:29;;;;;;;3.50;2.63;;;14.40;80.20;;;;;;5044207;28;20529;-61
2024/03/15 12:07:55;;;;;;;6.63;2.60;;;14.30;79.60;;;;;;5036281;28;20545;-61
2024/03/15 12:10:21;;;;;;;3.70;2.20;;;14.30;78.10;;;;;;5047386;28;20225;-62
2024/03/15 12:12:47;;;;;;;3.80;2.40;;;14.30;77.70;;;;;;5045374;28;20421;-60
2024/03/15 12:15:39;;;;;;;3.07;2.17;;;14.30;80.50;;;;;;5041157;28;20257;-59
2024/03/15 12:18:15;;;;;;;6.93;2.47;;;14.40;78.20;;;;;;5040778;28;20536;-60
2024/03/15 12:20:45;;;;;;;4.07;2.57;;;14.40;76.30;;;;;;5038615;28;20452;-59
2024/03/15 12:23:14;;;;;;;2.60;2.07;;;14.30;77.40;;;;;;5034707;28;20445;-60
2024/03/15 12:25:43;;;;;;;4.13;1.90;;;14.20;76.80;;;;;;5046466;28;20405;-61
2024/03/15 12:28:14;;;;;;;2.40;2.20;;;14.00;78.50;;;;;;5045528;28;20589;-60
2024/03/15 12:30:52;;;;;;;8.53;2.37;;;13.90;81.40;;;;;;5045140;28;20418;-60
2024/03/15 12:33:18;;;;;;;3.60;2.37;;;13.80;84.90;;;;;;5046328;28;20468;-60
2024/03/15 12:35:44;;;;;;;1.97;1.80;;;13.60;84.80;;;;;;5045585;28;20476;-64
2024/03/15 12:38:18;;;;;;;6.40;2.87;;;13.50;85.20;;;;;;5042936;28;20199;-61
2024/03/15 12:40:43;;;;;;;4.33;2.40;;;13.50;90.40;;;;;;5047766;28;21015;-60
2024/03/15 12:43:10;;;;;;;2.50;2.10;;;13.40;88.20;;;;;;5045282;28;20516;-60
2024/03/15 12:45:37;;;;;;;4.60;3.20;;;13.40;89.20;;;;;;5046237;28;20186;-59
2024/03/15 12:48:03;;;;;;;2.57;2.20;;;13.40;90.60;;;;;;5045427;28;20452;-60
2024/03/15 12:50:31;;;;;;;2.13;1.90;;;13.40;91.80;;;;;;5047544;28;20436;-60